createdAt,value
2019-05-01T00:01:01.664Z,53.40
2019-05-01T00:06:39.964Z,53.40
2019-05-01T00:09:10.890Z,53.20
2019-05-01T00:11:40.346Z,53.70
2019-05-01T00:14:10.354Z,53.50
2019-05-01T00:16:40.082Z,53.80
2019-05-01T00:19:09.545Z,53.70
2019-05-01T00:21:39.017Z,53.40
2019-05-01T00:24:09.550Z,53.60
2019-05-01T00:26:39.014Z,53.70
2019-05-01T00:29:08.411Z,54.10
2019-05-01T00:31:37.871Z,53.60
2019-05-01T00:34:07.261Z,53.30
2019-05-01T00:36:36.668Z,53.60
2019-05-01T00:39:08.064Z,53.40
2019-05-01T00:41:39.226Z,53.30
2019-05-01T00:44:10.240Z,53.30
2019-05-01T00:46:39.711Z,53.50
2019-05-01T00:49:09.101Z,53.70
2019-05-01T00:51:38.516Z,53.50
2019-05-01T00:54:07.896Z,53.50
2019-05-01T00:56:55.339Z,53.60
2019-05-01T00:59:35.759Z,53.20
2019-05-01T01:02:21.075Z,53.20
2019-05-01T01:04:50.553Z,53.50
2019-05-01T01:07:19.950Z,53.50
2019-05-01T01:09:49.369Z,54.10
2019-05-01T01:12:19.431Z,54.00
2019-05-01T01:14:48.854Z,53.70
2019-05-01T01:17:18.328Z,53.70
2019-05-01T01:19:47.717Z,53.70
2019-05-01T01:22:17.195Z,54.00
2019-05-01T01:24:46.730Z,53.50
2019-05-01T01:27:16.207Z,54.00
2019-05-01T01:29:45.607Z,53.90
2019-05-01T01:32:15.002Z,53.80
2019-05-01T01:34:44.476Z,53.90
2019-05-01T01:37:13.891Z,54.00
2019-05-01T01:39:43.284Z,54.00
2019-05-01T01:42:13.195Z,54.20
2019-05-01T01:44:44.232Z,54.10
2019-05-01T01:47:13.795Z,54.30
2019-05-01T01:49:43.252Z,54.00
2019-05-01T01:52:14.070Z,54.30
2019-05-01T01:54:43.635Z,54.20
2019-05-01T01:57:26.843Z,54.10
2019-05-01T01:59:56.480Z,54.10
2019-05-01T02:02:36.579Z,54.20
2019-05-01T02:05:08.867Z,54.20
2019-05-01T02:07:52.614Z,54.30
2019-05-01T02:10:42.601Z,54.40
2019-05-01T02:13:07.579Z,54.20
2019-05-01T02:15:36.987Z,54.30
2019-05-01T02:18:06.527Z,54.40
2019-05-01T02:20:36.000Z,54.20
2019-05-01T02:23:05.395Z,54.20
2019-05-01T02:25:37.082Z,54.40
2019-05-01T02:28:23.926Z,54.50
2019-05-01T02:31:27.125Z,54.20
2019-05-01T02:33:47.063Z,54.30
2019-05-01T02:36:18.924Z,54.70
2019-05-01T02:38:49.926Z,54.50
2019-05-01T02:41:20.443Z,54.30
2019-05-01T02:43:52.454Z,54.10
2019-05-01T02:46:24.460Z,54.40
2019-05-01T02:49:05.937Z,53.90
2019-05-01T02:51:38.364Z,54.50
2019-05-01T02:54:08.947Z,54.20
2019-05-01T02:56:42.412Z,54.20
2019-05-01T02:59:12.957Z,54.20
2019-05-01T03:01:47.836Z,54.30
2019-05-01T03:04:14.284Z,53.90
2019-05-01T03:06:44.196Z,53.90
2019-05-01T03:09:27.431Z,54.00
2019-05-01T03:11:58.479Z,53.70
2019-05-01T03:14:31.058Z,53.80
2019-05-01T03:17:03.442Z,53.90
2019-05-01T03:19:36.291Z,54.00
2019-05-01T03:22:23.928Z,53.80
2019-05-01T03:24:53.319Z,53.80
2019-05-01T03:27:22.724Z,53.80
2019-05-01T03:29:52.260Z,53.90
2019-05-01T03:32:21.728Z,53.70
2019-05-01T03:34:53.064Z,53.90
2019-05-01T03:37:22.959Z,54.00
2019-05-01T03:39:53.172Z,54.20
2019-05-01T03:42:22.636Z,54.00
2019-05-01T03:44:52.432Z,54.10
2019-05-01T03:47:22.367Z,54.00
2019-05-01T03:49:52.208Z,53.70
2019-05-01T03:52:22.041Z,54.00
2019-05-01T03:54:51.439Z,53.80
2019-05-01T03:57:21.388Z,54.00
2019-05-01T03:59:50.927Z,53.70
2019-05-01T04:02:32.990Z,54.10
2019-05-01T04:04:53.271Z,53.50
2019-05-01T04:07:22.933Z,53.60
2019-05-01T04:09:52.598Z,54.10
2019-05-01T04:12:22.681Z,53.60
2019-05-01T04:14:52.248Z,53.50
2019-05-01T04:17:33.139Z,53.00
2019-05-01T04:20:02.771Z,52.80
2019-05-01T04:22:32.412Z,52.60
2019-05-01T04:25:02.539Z,53.00
2019-05-01T04:27:33.730Z,53.60
2019-05-01T04:30:05.730Z,53.70
2019-05-01T04:32:50.882Z,53.50
2019-05-01T04:35:23.909Z,54.80
2019-05-01T04:37:54.356Z,53.90
2019-05-01T04:40:24.076Z,54.10
2019-05-01T04:42:53.817Z,54.80
2019-05-01T04:45:24.343Z,54.70
2019-05-01T04:47:54.404Z,55.30
2019-05-01T04:50:23.979Z,54.30
2019-05-01T04:52:53.440Z,54.30
2019-05-01T04:55:24.246Z,54.70
2019-05-01T04:57:53.876Z,54.60
2019-05-01T05:00:23.348Z,54.40
2019-05-01T05:03:04.594Z,54.80
2019-05-01T05:05:25.910Z,55.00
2019-05-01T05:07:55.570Z,54.60
2019-05-01T05:10:25.307Z,54.10
2019-05-01T05:13:03.430Z,54.90
2019-05-01T05:15:53.259Z,54.30
2019-05-01T05:18:22.819Z,54.00
2019-05-01T05:20:52.788Z,54.30
2019-05-01T05:23:23.147Z,54.40
2019-05-01T05:25:52.998Z,54.90
2019-05-01T05:28:24.064Z,54.70
2019-05-01T05:30:57.041Z,54.60
2019-05-01T05:33:29.527Z,54.20
2019-05-01T05:35:59.788Z,54.40
2019-05-01T05:38:35.687Z,53.70
2019-05-01T05:41:06.372Z,54.20
2019-05-01T05:43:36.211Z,54.20
2019-05-01T05:46:05.893Z,54.10
2019-05-01T05:48:35.662Z,54.00
2019-05-01T05:51:15.032Z,53.80
2019-05-01T05:53:51.916Z,54.40
2019-05-01T05:56:52.581Z,54.40
2019-05-01T05:59:26.504Z,54.20
2019-05-01T06:02:00.572Z,54.00
2019-05-01T06:04:33.071Z,54.20
2019-05-01T06:07:17.874Z,54.10
2019-05-01T06:09:50.560Z,54.30
2019-05-01T06:12:21.875Z,54.20
2019-05-01T06:15:02.488Z,54.80
2019-05-01T06:17:31.264Z,54.50
2019-05-01T06:20:05.310Z,54.60
2019-05-01T06:22:40.851Z,54.60
2019-05-01T06:25:22.116Z,54.20
2019-05-01T06:27:49.326Z,54.50
2019-05-01T06:30:17.094Z,54.60
2019-05-01T06:32:46.925Z,54.50
2019-05-01T06:35:16.459Z,54.70
2019-05-01T06:38:02.271Z,54.40
2019-05-01T06:40:44.195Z,54.20
2019-05-01T06:43:25.386Z,54.40
2019-05-01T06:46:11.876Z,54.80
2019-05-01T06:48:58.308Z,54.20
2019-05-01T06:51:35.440Z,54.20
2019-05-01T06:54:11.265Z,53.90
2019-05-01T06:56:39.710Z,54.00
2019-05-01T06:59:11.026Z,53.90
2019-05-01T07:01:41.247Z,54.20
2019-05-01T07:04:13.879Z,54.20
2019-05-01T07:06:42.408Z,53.10
2019-05-01T07:09:17.274Z,53.30
2019-05-01T07:11:47.645Z,53.10
2019-05-01T07:14:17.363Z,52.70
2019-05-01T07:16:46.646Z,52.60
2019-05-01T07:19:17.404Z,52.60
2019-05-01T07:21:46.794Z,52.70
2019-05-01T07:24:16.569Z,52.70
2019-05-01T07:26:48.102Z,52.80
2019-05-01T07:29:24.902Z,52.40
2019-05-01T07:31:54.370Z,52.50
2019-05-01T07:34:26.335Z,52.80
2019-05-01T07:36:56.283Z,53.10
2019-05-01T07:39:25.847Z,52.70
2019-05-01T07:41:57.136Z,51.90
2019-05-01T07:44:48.723Z,51.40
2019-05-01T07:47:30.529Z,51.30
2019-05-01T07:50:02.721Z,51.50
2019-05-01T07:52:32.550Z,51.10
2019-05-01T07:55:02.207Z,51.20
2019-05-01T07:57:34.324Z,51.10
2019-05-01T08:00:08.326Z,50.60
2019-05-01T08:02:36.887Z,50.20
2019-05-01T08:05:10.052Z,50.30
2019-05-01T08:07:39.519Z,50.20
2019-05-01T08:10:09.316Z,49.90
2019-05-01T08:12:38.922Z,50.20
2019-05-01T08:15:10.398Z,49.60
2019-05-01T08:17:41.452Z,49.70
2019-05-01T08:20:15.106Z,49.50
2019-05-01T08:22:43.926Z,49.40
2019-05-01T08:25:13.322Z,49.40
2019-05-01T08:27:44.469Z,49.80
2019-05-01T08:30:28.043Z,49.30
2019-05-01T08:33:02.038Z,49.50
2019-05-01T08:35:36.031Z,49.30
2019-05-01T08:38:02.764Z,49.60
2019-05-01T08:40:32.193Z,50.10
2019-05-01T08:43:01.661Z,49.10
2019-05-01T08:45:35.815Z,48.40
2019-05-01T08:48:11.814Z,49.00
2019-05-01T08:50:41.853Z,48.50
2019-05-01T08:53:11.322Z,49.40
2019-05-01T08:55:45.199Z,48.80
2019-05-01T08:58:13.980Z,49.10
2019-05-01T09:00:42.911Z,48.90
2019-05-01T09:03:13.518Z,48.60
2019-05-01T09:05:43.422Z,48.50
2019-05-01T09:08:12.834Z,48.60
2019-05-01T09:10:42.230Z,48.50
2019-05-01T09:13:11.704Z,48.30
2019-05-01T09:15:43.746Z,48.30
2019-05-01T09:18:12.310Z,48.20
2019-05-01T09:20:43.143Z,48.50
2019-05-01T09:23:14.449Z,48.90
2019-05-01T09:25:45.443Z,48.70
2019-05-01T09:28:16.490Z,48.90
2019-05-01T09:30:50.319Z,49.00
2019-05-01T09:33:19.729Z,48.90
2019-05-01T09:35:49.174Z,49.40
2019-05-01T09:38:18.580Z,49.30
2019-05-01T09:40:47.983Z,49.20
2019-05-01T09:43:17.578Z,49.80
2019-05-01T09:45:47.050Z,49.70
2019-05-01T09:48:16.637Z,48.60
2019-05-01T09:50:50.363Z,49.80
2019-05-01T09:53:24.267Z,48.20
2019-05-01T09:55:55.513Z,47.90
2019-05-01T09:58:24.962Z,48.70
2019-05-01T10:00:56.077Z,49.00
2019-05-01T10:03:25.734Z,51.10
2019-05-01T10:05:55.203Z,53.60
2019-05-01T10:08:24.617Z,52.70
2019-05-01T10:10:54.018Z,52.30
2019-05-01T10:13:24.202Z,52.80
2019-05-01T10:15:53.722Z,54.30
2019-05-01T10:18:23.133Z,51.40
2019-05-01T10:20:52.699Z,50.50
2019-05-01T10:23:22.323Z,50.80
2019-05-01T10:25:53.389Z,50.60
2019-05-01T10:28:26.926Z,50.50
2019-05-01T10:31:21.055Z,49.70
2019-05-01T10:33:54.957Z,49.40
2019-05-01T10:36:34.871Z,51.90
2019-05-01T10:39:07.383Z,51.50
2019-05-01T10:41:41.067Z,50.30
2019-05-01T10:44:08.393Z,49.90
2019-05-01T10:46:37.820Z,50.00
2019-05-01T10:49:07.216Z,51.50
2019-05-01T10:51:36.670Z,51.20
2019-05-01T10:54:06.671Z,51.10
2019-05-01T10:56:36.384Z,51.30
2019-05-01T10:59:05.927Z,50.20
2019-05-01T11:01:42.856Z,49.80
2019-05-01T11:04:12.321Z,49.60
2019-05-01T11:06:41.710Z,50.20
2019-05-01T11:09:11.671Z,49.70
2019-05-01T11:11:41.055Z,50.20
2019-05-01T11:14:10.626Z,49.30
2019-05-01T11:16:40.106Z,50.00
2019-05-01T11:19:09.495Z,49.20
2019-05-01T11:21:38.887Z,50.20
2019-05-01T11:24:08.354Z,50.40
2019-05-01T11:26:37.749Z,50.30
2019-05-01T11:29:07.157Z,50.20
2019-05-01T11:31:38.226Z,50.40
2019-05-01T11:34:09.283Z,50.00
2019-05-01T11:36:47.451Z,50.00
2019-05-01T11:39:36.009Z,49.80
2019-05-01T11:42:07.694Z,50.00
2019-05-01T11:44:37.163Z,50.00
2019-05-01T11:47:06.558Z,50.00
2019-05-01T11:49:36.791Z,50.40
2019-05-01T11:52:06.623Z,49.90
2019-05-01T11:54:36.020Z,50.00
2019-05-01T11:57:05.480Z,49.90
2019-05-01T11:59:34.885Z,49.80
2019-05-01T12:02:04.519Z,49.80
2019-05-01T12:04:34.000Z,50.20
2019-05-01T12:07:04.826Z,50.00
2019-05-01T12:09:34.377Z,49.90
2019-05-01T12:12:11.615Z,50.20
2019-05-01T12:14:41.107Z,49.80
2019-05-01T12:17:15.131Z,50.10
2019-05-01T12:19:44.596Z,49.90
2019-05-01T12:22:15.065Z,50.70
2019-05-01T12:24:44.443Z,50.30
2019-05-01T12:27:13.854Z,50.20
2019-05-01T12:29:43.265Z,50.30
2019-05-01T12:32:12.728Z,49.90
2019-05-01T12:34:42.207Z,50.20
2019-05-01T12:37:16.205Z,50.30
2019-05-01T12:39:46.599Z,49.80
2019-05-01T12:42:18.279Z,49.90
2019-05-01T12:44:47.684Z,50.00
2019-05-01T12:47:18.725Z,49.40
2019-05-01T12:49:49.813Z,49.80
2019-05-01T12:52:23.388Z,50.50
2019-05-01T12:55:10.932Z,49.60
2019-05-01T12:57:40.335Z,49.40
2019-05-01T13:00:11.631Z,49.80
2019-05-01T13:02:41.107Z,49.60
2019-05-01T13:05:10.761Z,49.90
2019-05-01T13:07:40.223Z,50.00
2019-05-01T13:10:10.351Z,50.10
2019-05-01T13:12:39.807Z,50.20
2019-05-01T13:15:09.735Z,50.40
2019-05-01T13:17:39.151Z,49.70
2019-05-01T13:20:09.326Z,50.40
2019-05-01T13:22:39.867Z,50.30
2019-05-01T13:25:09.270Z,50.20
2019-05-01T13:27:56.723Z,50.00
2019-05-01T13:30:38.214Z,50.10
2019-05-01T13:33:07.617Z,50.10
2019-05-01T13:35:37.106Z,50.10
2019-05-01T13:38:06.846Z,49.60
2019-05-01T13:40:37.207Z,49.70
2019-05-01T13:43:06.787Z,49.90
2019-05-01T13:45:36.182Z,49.10
2019-05-01T13:48:06.826Z,49.60
2019-05-01T13:50:36.228Z,49.10
2019-05-01T13:53:05.938Z,49.70
2019-05-01T13:55:35.343Z,49.50
2019-05-01T13:58:04.881Z,49.80
2019-05-01T14:00:34.911Z,49.90
2019-05-01T14:03:04.649Z,49.20
2019-05-01T14:05:34.054Z,49.00
2019-05-01T14:08:03.619Z,49.50
2019-05-01T14:10:33.026Z,48.40
2019-05-01T14:13:02.506Z,49.50
2019-05-01T14:15:31.903Z,49.40
2019-05-01T14:18:01.295Z,49.00
2019-05-01T14:20:32.351Z,48.80
2019-05-01T14:23:06.219Z,48.40
2019-05-01T14:25:37.275Z,48.60
2019-05-01T14:28:06.667Z,49.20
2019-05-01T14:30:36.069Z,50.00
2019-05-01T14:33:05.538Z,50.10
2019-05-01T14:35:35.015Z,49.70
2019-05-01T14:38:18.109Z,49.00
2019-05-01T14:40:47.515Z,49.10
2019-05-01T14:43:17.090Z,48.90
2019-05-01T14:45:46.495Z,49.20
2019-05-01T14:48:15.903Z,48.50
2019-05-01T14:50:45.651Z,49.10
2019-05-01T14:53:15.051Z,49.20
2019-05-01T14:55:44.452Z,49.10
2019-05-01T14:58:13.924Z,49.00
2019-05-01T15:00:43.327Z,49.30
2019-05-01T15:03:12.731Z,48.90
2019-05-01T15:05:42.132Z,48.90
2019-05-01T15:21:26.108Z,50.80
2019-05-01T15:23:56.561Z,52.80
2019-05-01T15:26:25.973Z,53.20
2019-05-01T15:28:55.380Z,52.90
2019-05-01T15:31:24.782Z,52.10
2019-05-01T15:33:54.187Z,51.40
2019-05-01T15:36:23.761Z,50.80
2019-05-01T15:38:54.767Z,50.10
2019-05-01T15:41:25.835Z,49.90
2019-05-01T15:44:05.931Z,49.60
2019-05-01T15:46:37.056Z,49.60
2019-05-01T15:49:06.455Z,49.20
2019-05-01T15:51:35.868Z,49.30
2019-05-01T15:54:05.256Z,48.90
2019-05-01T15:56:34.662Z,48.90
2019-05-01T15:59:04.211Z,48.50
2019-05-01T16:01:33.674Z,48.50
2019-05-01T16:04:03.078Z,48.70
2019-05-01T16:06:32.566Z,48.90
2019-05-01T16:09:02.006Z,48.70
2019-05-01T16:11:50.829Z,48.90
2019-05-01T16:14:20.327Z,48.60
2019-05-01T16:16:49.860Z,48.70
2019-05-01T16:19:34.332Z,49.10
2019-05-01T16:22:05.394Z,49.20
2019-05-01T16:24:35.948Z,48.80
2019-05-01T16:27:05.891Z,48.90
2019-05-01T16:29:35.296Z,49.00
2019-05-01T16:32:05.054Z,49.20
2019-05-01T16:34:34.476Z,49.30
2019-05-01T16:37:04.174Z,49.30
2019-05-01T16:39:44.268Z,49.30
2019-05-01T16:42:13.750Z,49.40
2019-05-01T16:44:43.376Z,49.80
2019-05-01T16:47:12.775Z,49.60
2019-05-01T16:49:42.217Z,49.80
2019-05-01T16:52:12.140Z,49.50
2019-05-01T16:54:41.624Z,50.00
2019-05-01T16:57:12.652Z,50.10
2019-05-01T16:59:42.071Z,49.80
2019-05-01T17:02:13.112Z,50.30
2019-05-01T17:04:44.255Z,49.50
2019-05-01T17:07:30.552Z,49.10
2019-05-01T17:10:13.406Z,49.00
2019-05-01T17:12:50.355Z,49.20
2019-05-01T17:15:27.968Z,49.10
2019-05-01T17:17:57.373Z,49.00
2019-05-01T17:20:27.143Z,49.20
2019-05-01T17:22:56.555Z,49.50
2019-05-01T17:25:29.445Z,49.50
2019-05-01T17:27:58.314Z,49.60
2019-05-01T17:30:46.540Z,49.80
2019-05-01T17:33:20.680Z,49.80
2019-05-01T17:35:47.053Z,49.80
2019-05-01T17:38:17.532Z,50.10
2019-05-01T17:40:47.363Z,49.90
2019-05-01T17:43:19.167Z,50.00
2019-05-01T17:45:48.568Z,50.20
2019-05-01T17:48:17.975Z,50.20
2019-05-01T17:50:48.427Z,50.30
2019-05-01T17:53:17.828Z,50.20
2019-05-01T17:55:47.295Z,50.00
2019-05-01T17:58:16.693Z,50.10
2019-05-01T18:01:05.499Z,50.10
2019-05-01T18:03:55.892Z,50.50
2019-05-01T18:06:26.941Z,50.40
2019-05-01T18:09:02.847Z,50.30
2019-05-01T18:11:27.739Z,50.40
2019-05-01T18:13:57.249Z,50.70
2019-05-01T18:16:26.737Z,50.50
2019-05-01T18:18:56.327Z,50.80
2019-05-01T18:21:25.799Z,50.50
2019-05-01T18:24:02.672Z,50.60
2019-05-01T18:26:52.143Z,50.50
2019-05-01T18:29:23.199Z,50.70
2019-05-01T18:31:52.583Z,50.50
2019-05-01T18:34:22.373Z,50.60
2019-05-01T18:37:02.200Z,50.60
2019-05-01T18:39:37.467Z,50.60
2019-05-01T18:42:17.411Z,50.80
2019-05-01T18:44:47.927Z,51.00
2019-05-01T18:47:18.167Z,51.50
2019-05-01T18:49:47.632Z,51.30
2019-05-01T18:52:17.116Z,51.50
2019-05-01T18:54:46.513Z,51.20
2019-05-01T18:57:15.916Z,51.20
2019-05-01T18:59:45.319Z,51.30
2019-05-01T19:02:15.066Z,51.60
2019-05-01T19:04:44.478Z,51.70
2019-05-01T19:07:13.884Z,51.80
2019-05-01T19:09:43.594Z,51.80
2019-05-01T19:12:14.924Z,52.70
2019-05-01T19:14:44.398Z,52.10
2019-05-01T19:17:13.973Z,52.50
2019-05-01T19:19:43.373Z,52.30
2019-05-01T19:22:12.832Z,51.80
2019-05-01T19:24:43.431Z,52.10
2019-05-01T19:27:14.307Z,51.90
2019-05-01T19:29:45.083Z,51.70
2019-05-01T19:32:14.964Z,51.90
2019-05-01T19:34:44.356Z,52.00
2019-05-01T19:37:16.627Z,52.00
2019-05-01T19:39:48.942Z,52.10
2019-05-01T19:42:21.645Z,52.40
2019-05-01T19:44:51.068Z,52.20
2019-05-01T19:47:19.638Z,52.00
2019-05-01T19:49:49.232Z,52.00
2019-05-01T19:52:18.655Z,52.20
2019-05-01T19:54:48.149Z,51.90
2019-05-01T19:57:17.666Z,52.40
2019-05-01T19:59:47.070Z,52.20
2019-05-01T20:02:22.080Z,51.80
2019-05-01T20:04:50.606Z,52.10
2019-05-01T20:07:23.824Z,52.10
2019-05-01T20:09:57.195Z,52.40
2019-05-01T20:12:24.569Z,52.10
2019-05-01T20:14:54.038Z,52.10
2019-05-01T20:17:23.575Z,52.00
2019-05-01T20:19:52.985Z,52.20
2019-05-01T20:22:22.395Z,52.10
2019-05-01T20:24:51.856Z,52.20
2019-05-01T20:27:21.259Z,52.30
2019-05-01T20:29:50.659Z,52.30
2019-05-01T20:32:21.107Z,52.50
2019-05-01T20:34:52.767Z,53.10
2019-05-01T20:37:22.510Z,52.80
2019-05-01T20:39:52.161Z,52.50
2019-05-01T20:42:21.639Z,52.60
2019-05-01T20:45:03.963Z,52.80
2019-05-01T20:47:34.375Z,53.00
2019-05-01T20:49:54.447Z,53.00
2019-05-01T20:52:23.848Z,52.70
2019-05-01T20:54:53.303Z,52.80
2019-05-01T20:57:27.507Z,52.80
2019-05-01T20:59:57.016Z,52.80
2019-05-01T21:02:26.567Z,52.70
2019-05-01T21:05:18.292Z,52.80
2019-05-01T21:08:04.359Z,53.00
2019-05-01T21:10:36.107Z,53.00
2019-05-01T21:13:05.664Z,53.20
2019-05-01T21:15:35.092Z,53.30
2019-05-01T21:18:04.616Z,53.30
2019-05-01T21:20:34.003Z,53.10
2019-05-01T21:23:10.370Z,53.20
2019-05-01T21:25:35.041Z,53.10
2019-05-01T21:28:04.950Z,53.10
2019-05-01T21:30:38.643Z,53.20
2019-05-01T21:33:10.055Z,53.20
2019-05-01T21:35:36.738Z,53.10
2019-05-01T21:38:06.201Z,53.30
2019-05-01T21:40:40.325Z,53.30
2019-05-01T21:43:07.104Z,53.20
2019-05-01T21:45:36.583Z,53.10
2019-05-01T21:48:06.160Z,53.20
2019-05-01T21:50:36.504Z,53.30
2019-05-01T21:53:06.982Z,53.20
2019-05-01T21:55:36.680Z,53.10
2019-05-01T21:58:06.084Z,53.00
2019-05-01T22:00:40.467Z,53.40
2019-05-01T22:03:11.763Z,53.50
2019-05-01T22:05:41.224Z,53.40
2019-05-01T22:08:10.618Z,53.50
2019-05-01T22:10:51.300Z,53.50
2019-05-01T22:13:12.492Z,53.40
2019-05-01T22:15:47.165Z,53.50
2019-05-01T22:18:16.295Z,53.40
2019-05-01T22:20:50.610Z,53.70
2019-05-01T22:23:23.256Z,53.30
2019-05-01T22:25:54.343Z,53.20
2019-05-01T22:28:32.443Z,53.40
2019-05-01T22:31:16.802Z,53.40
2019-05-01T22:33:48.119Z,53.30
2019-05-01T22:36:17.584Z,53.30
2019-05-01T22:38:47.042Z,53.40
2019-05-01T22:41:16.447Z,53.40
2019-05-01T22:43:45.834Z,53.50
2019-05-01T22:46:17.214Z,53.40
2019-05-01T22:48:46.606Z,53.40
2019-05-01T22:51:17.642Z,53.40
2019-05-01T22:53:48.739Z,53.30
2019-05-01T22:56:32.081Z,53.30
2019-05-01T22:59:01.470Z,53.50
2019-05-01T23:01:30.932Z,53.40
2019-05-01T23:04:01.983Z,53.40
2019-05-01T23:06:31.412Z,53.30
2019-05-01T23:09:00.940Z,53.40
2019-05-01T23:11:33.602Z,53.30
2019-05-01T23:14:03.051Z,53.20
2019-05-01T23:16:34.563Z,53.10
2019-05-01T23:19:04.099Z,53.20
2019-05-01T23:21:33.504Z,53.10
2019-05-01T23:24:03.778Z,53.30
2019-05-01T23:26:33.177Z,53.30
2019-05-01T23:29:02.718Z,53.30
2019-05-01T23:31:32.182Z,53.30
2019-05-01T23:34:01.576Z,53.50
2019-05-01T23:36:30.976Z,53.20
2019-05-01T23:39:00.437Z,53.00
2019-05-01T23:41:45.363Z,53.20
2019-05-01T23:44:03.700Z,53.30
2019-05-01T23:46:32.097Z,53.10
2019-05-01T23:49:01.490Z,53.30
2019-05-01T23:51:30.888Z,53.40
2019-05-01T23:54:00.266Z,53.10
2019-05-01T23:56:31.033Z,53.30
2019-05-01T23:59:00.759Z,53.40
